Independence, CA (93526)

3:47 AM PDT on August 28, 2016 (GMT -0700)
Little Hollywood | | Change Station

Elev 3727 ft 36.60 °N, 118.06 °W | Updated 30 seconds ago

Clear
Clear
61.9 °F
Feels Like 61.9 °F
N
0.0
Wind Variable Wind from SSE

Today
High -- | Low -- °F
--% Chance of Precip.
Yesterday
High -- | Low -- °F
Precip. -- in
Pressure 29.96 in
Visibility 10.0 miles
Clouds Clear
Dew Point 37 °F
Humidity 39%
Rainfall 0.00 in
Snow Depth Not available.
6:21 AM 7:26 PM
Waning Crescent, 16% visible
METAR KBIH 280956Z AUTO 31003KT 10SM CLR 16/01 A3011 RMK AO2 SLP143 T01610006
Pressure 29.96 in
Visibility 10.0 miles
Clouds Clear
Dew Point 37 °F
Humidity 39%
Rainfall 0.00 in
Snow Depth Not available.
6:21 AM 7:26 PM
Waning Crescent, 16% visible
METAR KBIH 280956Z AUTO 31003KT 10SM CLR 16/01 A3011 RMK AO2 SLP143 T01610006

10-Day Weather Forecast

Almanac

Astronomy

Aug. 28, 2016 Rise Set
Actual Time
Civil Twilight
Nautical Twilight
Astronomical Twilight
Moon
Length of Visible Light
Length of Day
Tomorrow will be .
, % of the Moon is Illuminated

Today's Extremes

State Highs State Lows

Community

WunderPhotos

Upload Photos

1,935,541 photos uploaded!

WunderBlog® & News

Nearby

Air Quality

  Air Quality AQ Index Pollutant
Not available.

Snow Depth

Station Depth Elevation

Earthquake Activity

City Distance Mag. Time & Date
Minimum magnitude displayed is 2.5.

Coastal Water Temperatures

Place Temperature

Stations

Nearby Weather Stations

Station Location Temp. Windchill Dew Point Humidity Wind Precip. Elev Updated Type
                   

Watches & Warnings

There are currently no watches in effect.